Time;durP1;ratioP1;P1;durP2;ratioP2;P2;SDS_P1;SDS_P2;PMS_P1;PMS_P2;Temp;Humidity;BMP_temperature;BMP_pressure;BME280_temperature;BME280_humidity;BME280_pressure;Samples;Min_cycle;Max_cycle;Signal;HPM_P1;HPM_P2
2023/07/14 00:00:11;;;;;;;9.63;3.35;;;;;;;;;;5216182;28;20021;-71
2023/07/14 00:02:43;;;;;;;5.50;2.83;;;;;;;;;;5218751;28;20037;-72
2023/07/14 00:05:15;;;;;;;6.80;2.88;;;;;;;;;;5223101;28;20021;-72
2023/07/14 00:07:46;;;;;;;9.13;3.60;;;;;;;;;;5222686;28;20021;-71
2023/07/14 00:10:32;;;;;;;6.95;2.90;;;;;;;;;;5224056;28;20025;-71
2023/07/14 00:13:03;;;;;;;10.75;3.25;;;;;;;;;;5224037;28;20025;-71
2023/07/14 00:15:35;;;;;;;9.55;3.13;;;;;;;;;;5223891;28;20484;-72
2023/07/14 00:18:16;;;;;;;10.35;3.25;;;;;;;;;;5224066;28;20041;-71
2023/07/14 00:20:46;;;;;;;5.80;2.92;;;;;;;;;;5224132;28;20024;-71
2023/07/14 00:23:17;;;;;;;7.85;3.10;;;;;;;;;;5223933;28;20021;-71
2023/07/14 00:25:48;;;;;;;5.65;3.03;;;;;;;;;;5223561;28;20032;-72
2023/07/14 00:28:20;;;;;;;4.55;2.92;;;;;;;;;;5223980;28;20025;-71
2023/07/14 00:30:50;;;;;;;9.48;2.80;;;;;;;;;;5224066;28;20471;-71
2023/07/14 00:33:20;;;;;;;7.38;3.00;;;;;;;;;;5223785;28;20021;-71
2023/07/14 00:35:51;;;;;;;8.82;3.15;;;;;;;;;;5222321;28;20394;-72
2023/07/14 00:38:21;;;;;;;9.77;2.83;;;;;;;;;;5223711;28;20062;-71
2023/07/14 00:40:51;;;;;;;5.13;3.28;;;;;;;;;;5224078;28;20478;-71
2023/07/14 00:43:24;;;;;;;4.72;2.85;;;;;;;;;;5223970;28;20028;-71
2023/07/14 00:45:56;;;;;;;5.63;3.20;;;;;;;;;;5223147;28;20021;-71
2023/07/14 00:48:28;;;;;;;6.38;3.70;;;;;;;;;;5223764;28;20017;-71
2023/07/14 00:50:58;;;;;;;9.40;3.53;;;;;;;;;;5224121;28;20029;-71
2023/07/14 00:53:47;;;;;;;6.78;2.80;;;;;;;;;;5228046;28;20033;-71
2023/07/14 00:56:36;;;;;;;8.27;3.17;;;;;;;;;;5226840;28;20479;-72
2023/07/14 00:59:11;;;;;;;7.55;3.08;;;;;;;;;;5227445;28;20044;-71
2023/07/14 01:02:00;;;;;;;8.98;3.10;;;;;;;;;;5214058;28;20056;-71
2023/07/14 01:04:30;;;;;;;8.13;3.47;;;;;;;;;;5227751;28;20098;-72
2023/07/14 01:07:01;;;;;;;14.90;3.83;;;;;;;;;;5227418;28;20021;-71
2023/07/14 01:09:31;;;;;;;4.95;2.92;;;;;;;;;;5227654;28;20041;-72
2023/07/14 01:12:03;;;;;;;5.45;3.30;;;;;;;;;;5227706;28;20021;-72
2023/07/14 01:14:36;;;;;;;5.68;2.90;;;;;;;;;;5227633;28;20013;-72
2023/07/14 01:17:07;;;;;;;6.72;3.13;;;;;;;;;;5226797;28;20101;-72
2023/07/14 01:19:43;;;;;;;8.15;3.03;;;;;;;;;;5214057;28;20104;-72
2023/07/14 01:22:32;;;;;;;11.30;3.33;;;;;;;;;;5227735;28;20104;-72
2023/07/14 01:25:10;;;;;;;5.30;2.95;;;;;;;;;;5227681;28;20025;-71
2023/07/14 01:27:40;;;;;;;7.38;3.00;;;;;;;;;;5226520;28;20017;-72
2023/07/14 01:30:11;;;;;;;11.25;3.13;;;;;;;;;;5227173;28;20033;-72
2023/07/14 01:32:45;;;;;;;7.35;3.70;;;;;;;;;;5227338;28;20475;-71
2023/07/14 01:35:16;;;;;;;5.57;3.50;;;;;;;;;;5226947;28;20029;-72
2023/07/14 01:37:46;;;;;;;5.60;3.00;;;;;;;;;;5227134;28;20083;-71
2023/07/14 01:40:18;;;;;;;7.28;3.17;;;;;;;;;;5226708;28;20029;-72
2023/07/14 01:42:51;;;;;;;5.82;3.33;;;;;;;;;;5226945;28;20025;-71
2023/07/14 01:45:23;;;;;;;5.00;3.00;;;;;;;;;;5226769;28;20108;-71
2023/07/14 01:47:57;;;;;;;5.47;3.03;;;;;;;;;;5226461;28;20025;-72
2023/07/14 01:50:30;;;;;;;5.65;3.10;;;;;;;;;;5226335;28;20029;-71
2023/07/14 01:53:04;;;;;;;6.47;2.95;;;;;;;;;;5226642;28;20078;-71
2023/07/14 01:55:36;;;;;;;6.75;3.13;;;;;;;;;;5226727;28;20017;-71
2023/07/14 01:58:09;;;;;;;6.70;2.90;;;;;;;;;;5226400;28;20029;-72
2023/07/14 02:00:41;;;;;;;7.00;3.25;;;;;;;;;;5214849;28;20033;-72
2023/07/14 02:03:13;;;;;;;5.95;3.20;;;;;;;;;;5225096;28;20291;-72
2023/07/14 02:05:43;;;;;;;8.70;3.67;;;;;;;;;;5226317;28;20052;-71
2023/07/14 02:08:16;;;;;;;7.72;3.08;;;;;;;;;;5226491;28;20087;-71
2023/07/14 02:10:46;;;;;;;4.57;2.88;;;;;;;;;;5226221;28;20017;-71
2023/07/14 02:13:17;;;;;;;8.30;3.40;;;;;;;;;;5226369;28;20030;-71
2023/07/14 02:15:48;;;;;;;13.63;3.38;;;;;;;;;;5225583;28;20411;-71
2023/07/14 02:18:21;;;;;;;11.25;3.58;;;;;;;;;;5226143;28;20032;-71
2023/07/14 02:20:52;;;;;;;7.47;3.47;;;;;;;;;;5226265;28;20025;-71
2023/07/14 02:23:24;;;;;;;7.22;3.67;;;;;;;;;;5226496;28;20021;-71
2023/07/14 02:25:55;;;;;;;13.18;3.53;;;;;;;;;;5225737;28;20017;-71
2023/07/14 02:28:26;;;;;;;8.43;3.70;;;;;;;;;;5225912;28;20033;-71
2023/07/14 02:31:12;;;;;;;8.00;3.42;;;;;;;;;;5225967;28;20039;-71
2023/07/14 02:33:42;;;;;;;;;;;;;;;;;;5226243;28;20107;-71
2023/07/14 02:36:12;;;;;;;7.95;3.85;;;;;;;;;;5225486;28;20000;-71
2023/07/14 02:38:42;;;;;;;9.65;3.80;;;;;;;;;;5225583;28;20395;-71
2023/07/14 02:41:31;;;;;;;8.35;4.22;;;;;;;;;;5225869;28;20021;-71
2023/07/14 02:44:03;;;;;;;15.63;3.85;;;;;;;;;;5213174;28;20021;-71
2023/07/14 02:46:52;;;;;;;5.95;3.90;;;;;;;;;;5225640;28;20032;-71
2023/07/14 02:49:22;;;;;;;10.95;4.70;;;;;;;;;;5225774;28;20071;-71
2023/07/14 02:51:52;;;;;;;8.95;3.75;;;;;;;;;;5225697;28;20025;-71
2023/07/14 02:54:25;;;;;;;13.50;4.20;;;;;;;;;;5225709;28;20020;-71
2023/07/14 02:56:56;;;;;;;9.00;4.07;;;;;;;;;;5212160;28;20059;-71
2023/07/14 02:59:26;;;;;;;7.28;3.78;;;;;;;;;;5223372;28;20057;-71
2023/07/14 03:01:56;;;;;;;13.52;4.15;;;;;;;;;;5213632;28;20033;-71
2023/07/14 03:04:27;;;;;;;11.57;4.05;;;;;;;;;;5225350;28;20386;-71
2023/07/14 03:06:57;;;;;;;8.52;4.30;;;;;;;;;;5224923;28;20016;-70
2023/07/14 03:09:27;;;;;;;9.35;4.00;;;;;;;;;;5225308;28;20623;-71
2023/07/14 03:11:57;;;;;;;7.18;3.95;;;;;;;;;;5224722;28;20425;-71
2023/07/14 03:14:28;;;;;;;9.07;4.03;;;;;;;;;;5224565;28;20048;-71
2023/07/14 03:16:58;;;;;;;11.30;4.25;;;;;;;;;;5224588;28;20406;-71
2023/07/14 03:19:29;;;;;;;9.38;3.97;;;;;;;;;;5224968;28;20021;-71
2023/07/14 03:21:59;;;;;;;8.98;4.35;;;;;;;;;;5224998;28;20021;-71
2023/07/14 03:24:29;;;;;;;11.43;4.43;;;;;;;;;;5224612;28;20116;-71
2023/07/14 03:26:59;;;;;;;8.50;4.38;;;;;;;;;;5224865;28;20390;-71
2023/07/14 03:29:30;;;;;;;15.77;4.53;;;;;;;;;;5224890;28;20048;-71
2023/07/14 03:32:00;;;;;;;13.05;4.35;;;;;;;;;;5224907;28;20028;-71
2023/07/14 03:34:30;;;;;;;9.07;4.28;;;;;;;;;;5224828;28;20020;-71
2023/07/14 03:37:00;;;;;;;13.82;5.00;;;;;;;;;;5224171;28;20025;-71
2023/07/14 03:39:31;;;;;;;9.50;4.38;;;;;;;;;;5224749;28;20047;-71
2023/07/14 03:42:01;;;;;;;7.47;4.25;;;;;;;;;;5224765;28;20540;-71
2023/07/14 03:44:32;;;;;;;5.78;4.05;;;;;;;;;;5224785;28;20047;-71
2023/07/14 03:47:03;;;;;;;8.65;3.50;;;;;;;;;;5224467;28;20021;-71
2023/07/14 03:49:34;;;;;;;12.30;4.05;;;;;;;;;;5224354;28;20021;-71
2023/07/14 03:52:05;;;;;;;8.00;4.57;;;;;;;;;;5224671;28;20473;-71
2023/07/14 03:54:35;;;;;;;12.00;4.70;;;;;;;;;;5224479;28;20063;-71
2023/07/14 03:57:05;;;;;;;12.95;4.68;;;;;;;;;;5224177;28;20052;-71
2023/07/14 03:59:35;;;;;;;11.85;4.13;;;;;;;;;;5221051;28;20467;-71
2023/07/14 04:02:06;;;;;;;9.30;4.78;;;;;;;;;;5214248;28;20090;-71
2023/07/14 04:04:36;;;;;;;13.93;5.57;;;;;;;;;;5224425;28;20029;-71
2023/07/14 04:07:07;;;;;;;8.02;4.65;;;;;;;;;;5222939;28;20075;-71
2023/07/14 04:09:37;;;;;;;9.05;5.05;;;;;;;;;;5224263;28;20039;-71
2023/07/14 04:12:08;;;;;;;10.75;4.53;;;;;;;;;;5224052;28;20028;-71
2023/07/14 04:14:38;;;;;;;8.40;4.18;;;;;;;;;;5224710;28;20079;-71
2023/07/14 04:17:08;;;;;;;7.20;3.97;;;;;;;;;;5224375;28;20028;-71
2023/07/14 04:19:39;;;;;;;24.23;4.40;;;;;;;;;;5224383;28;20413;-71
2023/07/14 04:22:09;;;;;;;9.70;4.88;;;;;;;;;;5224220;28;20025;-71
2023/07/14 04:24:39;;;;;;;13.88;5.05;;;;;;;;;;5223809;28;20049;-71
2023/07/14 04:27:10;;;;;;;12.80;5.05;;;;;;;;;;5226248;28;20021;-71
2023/07/14 04:29:40;;;;;;;13.45;4.43;;;;;;;;;;5228469;28;20036;-71
2023/07/14 04:32:11;;;;;;;12.00;3.95;;;;;;;;;;5228609;28;20459;-71
2023/07/14 04:34:41;;;;;;;8.90;4.22;;;;;;;;;;5228256;28;20078;-71
2023/07/14 04:37:11;;;;;;;6.88;3.30;;;;;;;;;;5227334;28;20035;-71
2023/07/14 04:39:42;;;;;;;12.50;3.97;;;;;;;;;;5228280;28;20481;-71
2023/07/14 04:42:12;;;;;;;13.15;4.20;;;;;;;;;;5227059;28;20029;-71
2023/07/14 04:44:43;;;;;;;12.35;4.45;;;;;;;;;;5227940;28;20025;-71
2023/07/14 04:47:13;;;;;;;7.78;3.95;;;;;;;;;;5227666;28;20028;-71
2023/07/14 04:49:43;;;;;;;9.55;3.63;;;;;;;;;;5227498;28;20032;-71
2023/07/14 04:52:14;;;;;;;9.48;3.95;;;;;;;;;;5227985;28;20021;-71
2023/07/14 04:54:44;;;;;;;11.82;3.90;;;;;;;;;;5227831;28;20306;-71
2023/07/14 04:57:14;;;;;;;11.98;4.40;;;;;;;;;;5227667;28;20059;-71
2023/07/14 04:59:45;;;;;;;11.05;4.22;;;;;;;;;;5223450;28;20047;-71
2023/07/14 05:02:15;;;;;;;8.63;3.92;;;;;;;;;;5218267;28;20033;-71
2023/07/14 05:05:05;;;;;;;14.30;4.22;;;;;;;;;;5227832;28;20160;-71
2023/07/14 05:07:36;;;;;;;9.40;4.35;;;;;;;;;;5227254;28;20036;-71
2023/07/14 05:10:06;;;;;;;13.30;4.40;;;;;;;;;;5227446;28;20009;-71
2023/07/14 05:12:37;;;;;;;13.00;4.10;;;;;;;;;;5227465;28;20053;-71
2023/07/14 05:15:10;;;;;;;12.23;3.85;;;;;;;;;;5227705;28;20029;-71
2023/07/14 05:17:42;;;;;;;10.88;3.55;;;;;;;;;;5226796;28;20017;-72
2023/07/14 05:20:14;;;;;;;10.40;4.07;;;;;;;;;;5227410;28;20021;-72
2023/07/14 05:22:46;;;;;;;11.90;4.32;;;;;;;;;;5227340;28;20029;-71
2023/07/14 05:25:17;;;;;;;10.60;3.50;;;;;;;;;;5226722;28;20024;-72
2023/07/14 05:27:48;;;;;;;7.70;3.67;;;;;;;;;;5226894;28;20532;-71
2023/07/14 05:30:20;;;;;;;8.73;3.47;;;;;;;;;;5227108;28;20035;-71
2023/07/14 05:32:50;;;;;;;9.73;3.53;;;;;;;;;;5227326;28;20100;-71
2023/07/14 05:35:21;;;;;;;10.00;3.58;;;;;;;;;;5226899;28;20092;-71
2023/07/14 05:37:51;;;;;;;17.08;3.88;;;;;;;;;;5226268;28;20036;-72
2023/07/14 05:40:22;;;;;;;11.15;3.83;;;;;;;;;;5225838;28;20025;-71
2023/07/14 05:42:52;;;;;;;12.13;3.97;;;;;;;;;;5227295;28;20075;-72
2023/07/14 05:45:22;;;;;;;9.07;3.22;;;;;;;;;;5226852;28;20016;-71
2023/07/14 05:47:53;;;;;;;7.40;3.22;;;;;;;;;;5226271;28;20107;-71
2023/07/14 05:50:24;;;;;;;9.80;3.53;;;;;;;;;;5226615;28;20479;-72
2023/07/14 05:52:54;;;;;;;9.63;3.55;;;;;;;;;;5226556;28;20063;-70
2023/07/14 05:55:25;;;;;;;12.68;3.45;;;;;;;;;;5225871;28;20016;-70
2023/07/14 05:57:55;;;;;;;10.27;3.63;;;;;;;;;;5226403;28;20058;-70
2023/07/14 06:00:26;;;;;;;10.02;3.42;;;;;;;;;;5216534;28;20356;-70
2023/07/14 06:02:56;;;;;;;10.15;3.47;;;;;;;;;;5222608;28;20036;-70
2023/07/14 06:05:26;;;;;;;9.45;2.60;;;;;;;;;;5226465;28;20115;-71
2023/07/14 06:07:57;;;;;;;11.00;3.22;;;;;;;;;;5226049;28;20105;-70
2023/07/14 06:10:27;;;;;;;13.48;3.17;;;;;;;;;;5226413;28;20025;-71
2023/07/14 06:12:57;;;;;;;7.63;2.83;;;;;;;;;;5225973;28;20029;-70
2023/07/14 06:15:28;;;;;;;7.00;2.22;;;;;;;;;;5225075;28;20025;-71
2023/07/14 06:17:58;;;;;;;8.00;2.80;;;;;;;;;;5225858;28;20475;-70
2023/07/14 06:20:28;;;;;;;5.50;2.28;;;;;;;;;;5226160;28;20020;-70
2023/07/14 06:22:59;;;;;;;8.25;2.85;;;;;;;;;;5226376;28;20104;-70
2023/07/14 06:25:29;;;;;;;11.40;2.88;;;;;;;;;;5225577;28;20096;-70
2023/07/14 06:28:00;;;;;;;5.60;2.85;;;;;;;;;;5224890;28;20517;-71
2023/07/14 06:30:30;;;;;;;8.20;2.80;;;;;;;;;;5225921;28;20025;-71
2023/07/14 06:33:01;;;;;;;7.75;2.53;;;;;;;;;;5225967;28;20075;-70
2023/07/14 06:35:31;;;;;;;11.18;3.20;;;;;;;;;;5225676;28;20013;-70
2023/07/14 06:38:01;;;;;;;9.98;3.17;;;;;;;;;;5225422;28;20016;-70
2023/07/14 06:40:32;;;;;;;11.55;2.90;;;;;;;;;;5225738;28;20386;-71
2023/07/14 06:43:03;;;;;;;10.07;3.00;;;;;;;;;;5226196;28;20021;-70
2023/07/14 06:45:34;;;;;;;7.63;2.90;;;;;;;;;;5225876;28;20031;-71
2023/07/14 06:48:05;;;;;;;11.68;3.30;;;;;;;;;;5225228;28;20449;-70
2023/07/14 06:50:36;;;;;;;6.50;2.83;;;;;;;;;;5224457;28;20048;-70
2023/07/14 06:53:06;;;;;;;6.28;2.63;;;;;;;;;;5225503;28;20394;-71
2023/07/14 06:55:37;;;;;;;8.82;2.83;;;;;;;;;;5225272;28;20028;-71
2023/07/14 06:58:08;;;;;;;8.60;2.88;;;;;;;;;;5225264;28;20013;-71
2023/07/14 07:00:38;;;;;;;8.10;3.17;;;;;;;;;;5214052;28;20037;-71
2023/07/14 07:03:08;;;;;;;9.48;2.80;;;;;;;;;;5222954;28;20143;-70
2023/07/14 07:05:40;;;;;;;5.13;2.72;;;;;;;;;;5224061;28;20062;-71
2023/07/14 07:08:11;;;;;;;13.68;2.42;;;;;;;;;;5225254;28;20017;-71
2023/07/14 07:10:42;;;;;;;5.97;3.00;;;;;;;;;;5224296;28;20017;-70
2023/07/14 07:13:12;;;;;;;9.45;2.70;;;;;;;;;;5225412;28;20029;-71
2023/07/14 07:15:43;;;;;;;5.75;2.22;;;;;;;;;;5225039;28;20029;-70
2023/07/14 07:18:13;;;;;;;6.78;2.53;;;;;;;;;;5225045;28;20521;-70
2023/07/14 07:20:44;;;;;;;7.93;3.03;;;;;;;;;;5225365;28;20040;-71
2023/07/14 07:23:14;;;;;;;7.32;2.75;;;;;;;;;;5225203;28;20024;-71
2023/07/14 07:25:47;;;;;;;9.35;3.03;;;;;;;;;;5224539;28;20186;-71
2023/07/14 07:28:18;;;;;;;6.40;2.67;;;;;;;;;;5224851;28;20017;-71
2023/07/14 07:30:48;;;;;;;7.93;2.88;;;;;;;;;;5225053;28;20021;-71
2023/07/14 07:33:18;;;;;;;5.18;2.67;;;;;;;;;;5224956;28;20033;-70
2023/07/14 07:35:49;;;;;;;5.57;2.85;;;;;;;;;;5224753;28;20024;-71
2023/07/14 07:38:19;;;;;;;11.02;2.60;;;;;;;;;;5224547;28;20028;-71
2023/07/14 07:40:49;;;;;;;7.18;2.50;;;;;;;;;;5224768;28;20021;-70
2023/07/14 07:43:22;;;;;;;5.75;2.33;;;;;;;;;;5223710;28;20384;-71
2023/07/14 07:45:52;;;;;;;8.55;2.42;;;;;;;;;;5224430;28;20021;-71
2023/07/14 07:48:22;;;;;;;7.78;2.75;;;;;;;;;;5224426;28;20036;-71
2023/07/14 07:50:53;;;;;;;7.53;2.17;;;;;;;;;;5224403;28;20067;-71
2023/07/14 07:53:23;;;;;;;4.70;2.28;;;;;;;;;;5224587;28;20357;-71
2023/07/14 07:55:54;;;;;;;7.93;2.00;;;;;;;;;;5224283;28;20021;-71
2023/07/14 07:58:25;;;;;;;4.85;2.60;;;;;;;;;;5224754;28;20494;-71
2023/07/14 08:00:56;;;;;;;5.90;2.00;;;;;;;;;;5210850;28;20098;-72
2023/07/14 08:03:26;;;;;;;5.70;2.10;;;;;;;;;;5223982;28;20069;-71
2023/07/14 08:05:57;;;;;;;5.43;2.42;;;;;;;;;;5223977;28;20512;-72
2023/07/14 08:08:28;;;;;;;5.75;2.38;;;;;;;;;;5224508;28;20013;-71
2023/07/14 08:10:58;;;;;;;5.82;2.55;;;;;;;;;;5224331;28;20025;-72
2023/07/14 08:13:29;;;;;;;8.55;2.50;;;;;;;;;;5224378;28;20025;-72
2023/07/14 08:15:59;;;;;;;4.63;2.28;;;;;;;;;;5223543;28;20032;-72
2023/07/14 08:18:30;;;;;;;4.40;1.95;;;;;;;;;;5224232;28;20019;-72
2023/07/14 08:21:01;;;;;;;5.68;1.88;;;;;;;;;;5224279;28;20502;-72
2023/07/14 08:23:34;;;;;;;5.28;2.22;;;;;;;;;;5224483;28;20025;-72
2023/07/14 08:26:04;;;;;;;6.25;2.53;;;;;;;;;;5223919;28;20021;-72
2023/07/14 08:28:35;;;;;;;6.82;2.10;;;;;;;;;;5223692;28;20163;-72
2023/07/14 08:31:07;;;;;;;5.90;2.78;;;;;;;;;;5223049;28;20029;-72
2023/07/14 08:33:40;;;;;;;4.95;2.35;;;;;;;;;;5224110;28;20057;-72
2023/07/14 08:36:12;;;;;;;6.57;2.33;;;;;;;;;;5223765;28;20013;-72
2023/07/14 08:38:43;;;;;;;8.32;2.55;;;;;;;;;;5224148;28;20104;-72
2023/07/14 08:41:20;;;;;;;7.35;2.63;;;;;;;;;;5224111;28;20096;-72
2023/07/14 08:43:51;;;;;;;3.03;2.10;;;;;;;;;;5224265;28;20095;-72
2023/07/14 08:46:26;;;;;;;12.65;3.05;;;;;;;;;;5223756;28;20528;-72
2023/07/14 08:49:03;;;;;;;6.72;2.72;;;;;;;;;;5224057;28;20498;-72
2023/07/14 08:51:36;;;;;;;10.10;2.67;;;;;;;;;;5223713;28;20104;-72
2023/07/14 08:54:12;;;;;;;6.10;2.83;;;;;;;;;;5224240;28;20021;-72
2023/07/14 08:56:43;;;;;;;8.02;2.70;;;;;;;;;;5223678;28;20017;-72
2023/07/14 08:59:17;;;;;;;7.15;2.85;;;;;;;;;;5223991;28;20044;-72
2023/07/14 09:01:49;;;;;;;4.85;2.53;;;;;;;;;;5210412;28;20039;-72
2023/07/14 09:04:35;;;;;;;7.70;2.67;;;;;;;;;;5223798;28;20025;-71
2023/07/14 09:07:08;;;;;;;5.65;3.17;;;;;;;;;;5223467;28;20081;-72
2023/07/14 09:09:39;;;;;;;5.28;2.58;;;;;;;;;;5223741;28;20060;-71
2023/07/14 09:12:15;;;;;;;6.35;2.47;;;;;;;;;;5224254;28;20025;-72
2023/07/14 09:14:59;;;;;;;8.05;2.65;;;;;;;;;;5227659;28;20029;-71
2023/07/14 09:17:30;;;;;;;7.70;2.80;;;;;;;;;;5227028;28;20463;-72
2023/07/14 09:20:08;;;;;;;6.95;2.70;;;;;;;;;;5227611;28;20096;-70
2023/07/14 09:22:43;;;;;;;5.68;2.65;;;;;;;;;;5227169;28;20371;-72
2023/07/14 09:25:14;;;;;;;10.43;3.10;;;;;;;;;;5227253;28;20108;-72
2023/07/14 09:27:46;;;;;;;9.05;2.80;;;;;;;;;;5227096;28;20024;-72
2023/07/14 09:30:18;;;;;;;7.55;2.47;;;;;;;;;;5227095;28;20378;-72
2023/07/14 09:32:51;;;;;;;8.07;2.63;;;;;;;;;;5227306;28;20017;-72
2023/07/14 09:35:24;;;;;;;7.18;2.53;;;;;;;;;;5226822;28;20021;-72
2023/07/14 09:38:13;;;;;;;11.27;2.92;;;;;;;;;;5226843;28;20047;-72
2023/07/14 09:40:46;;;;;;;6.75;2.75;;;;;;;;;;5213843;28;20036;-71
2023/07/14 09:43:16;;;;;;;8.38;3.05;;;;;;;;;;5226921;28;20028;-71
2023/07/14 09:45:46;;;;;;;12.00;3.20;;;;;;;;;;5226263;28;20375;-72
2023/07/14 09:48:18;;;;;;;6.28;2.90;;;;;;;;;;5226923;28;20028;-72
2023/07/14 09:51:04;;;;;;;5.68;2.55;;;;;;;;;;5226977;28;20020;-71
2023/07/14 09:53:36;;;;;;;9.10;3.03;;;;;;;;;;5226775;28;20036;-71
2023/07/14 09:56:12;;;;;;;7.43;3.08;;;;;;;;;;5226225;28;20052;-71
2023/07/14 09:58:51;;;;;;;14.30;3.05;;;;;;;;;;5226753;28;20486;-71
2023/07/14 10:01:22;;;;;;;7.57;2.50;;;;;;;;;;5213314;28;20020;-71
2023/07/14 10:06:39;;;;;;;5.88;2.67;;;;;;;;;;5213063;28;20391;-70
2023/07/14 10:09:11;;;;;;;7.43;3.20;;;;;;;;;;5226395;28;20029;-71
2023/07/14 10:11:43;;;;;;;7.10;2.60;;;;;;;;;;5226900;28;20383;-71
2023/07/14 10:14:31;;;;;;;7.95;3.00;;;;;;;;;;5226233;28;20016;-71
2023/07/14 10:17:04;;;;;;;6.28;2.30;;;;;;;;;;5225546;28;20021;-71
2023/07/14 10:19:37;;;;;;;6.85;2.70;;;;;;;;;;5226424;28;20009;-71
2023/07/14 10:22:26;;;;;;;9.73;3.17;;;;;;;;;;5226349;28;20021;-71
2023/07/14 10:24:57;;;;;;;9.98;2.63;;;;;;;;;;5225966;28;20048;-71
2023/07/14 10:27:29;;;;;;;5.50;2.60;;;;;;;;;;5225751;28;20471;-71
2023/07/14 10:30:08;;;;;;;6.57;2.55;;;;;;;;;;5226078;28;20020;-71
2023/07/14 10:32:38;;;;;;;5.22;2.92;;;;;;;;;;5226361;28;20079;-71
2023/07/14 10:35:21;;;;;;;7.35;2.75;;;;;;;;;;5226204;28;20479;-71
2023/07/14 10:37:56;;;;;;;7.00;2.75;;;;;;;;;;5225588;28;20094;-71
2023/07/14 10:40:26;;;;;;;;;;;;;;;;;;5226367;28;20021;-70
2023/07/14 10:42:58;;;;;;;9.68;2.58;;;;;;;;;;5225948;28;20433;-71
2023/07/14 10:45:30;;;;;;;9.30;2.55;;;;;;;;;;5225624;28;20028;-71
2023/07/14 10:48:15;;;;;;;8.32;3.08;;;;;;;;;;5225252;28;20017;-72
2023/07/14 10:51:02;;;;;;;6.32;2.35;;;;;;;;;;5225781;28;20518;-72
2023/07/14 10:53:36;;;;;;;5.80;2.28;;;;;;;;;;5225521;28;20048;-71
2023/07/14 10:56:14;;;;;;;5.05;2.15;;;;;;;;;;5225161;28;20028;-72
2023/07/14 10:58:48;;;;;;;4.60;2.63;;;;;;;;;;5225310;28;20079;-72
2023/07/14 11:01:22;;;;;;;6.82;2.55;;;;;;;;;;5211803;28;20064;-73
2023/07/14 11:03:58;;;;;;;5.07;2.45;;;;;;;;;;5225650;28;20017;-72
2023/07/14 11:06:29;;;;;;;7.28;2.40;;;;;;;;;;5224983;28;20112;-72
2023/07/14 11:09:00;;;;;;;6.28;2.38;;;;;;;;;;5224742;28;20386;-72
2023/07/14 11:11:48;;;;;;;8.38;2.70;;;;;;;;;;5225577;28;20025;-72
2023/07/14 11:14:31;;;;;;;7.22;2.83;;;;;;;;;;5225295;28;20540;-72
2023/07/14 11:17:09;;;;;;;7.88;2.83;;;;;;;;;;5224868;28;20106;-72
2023/07/14 11:19:58;;;;;;;6.03;2.70;;;;;;;;;;5212498;28;20406;-72
2023/07/14 11:22:36;;;;;;;4.97;2.00;;;;;;;;;;5225309;28;20094;-73
2023/07/14 11:25:20;;;;;;;5.65;2.22;;;;;;;;;;5225209;28;20013;-72
2023/07/14 11:27:55;;;;;;;5.93;2.30;;;;;;;;;;5224545;28;20529;-73
2023/07/14 11:30:44;;;;;;;6.30;2.42;;;;;;;;;;5224962;28;20020;-73
2023/07/14 11:33:33;;;;;;;5.43;2.30;;;;;;;;;;5225272;28;20040;-72
2023/07/14 11:36:09;;;;;;;6.65;2.53;;;;;;;;;;5223661;28;20016;-72
2023/07/14 11:38:57;;;;;;;5.13;2.13;;;;;;;;;;5223573;28;20079;-73
2023/07/14 11:41:27;;;;;;;3.70;2.10;;;;;;;;;;5224944;28;20025;-73
2023/07/14 11:44:00;;;;;;;5.68;2.10;;;;;;;;;;5225211;28;20033;-73
2023/07/14 11:46:30;;;;;;;6.75;2.20;;;;;;;;;;5224057;28;20151;-72
2023/07/14 11:49:03;;;;;;;12.25;2.38;;;;;;;;;;5224642;28;20096;-73
2023/07/14 11:51:46;;;;;;;6.45;2.13;;;;;;;;;;5224973;28;20032;-73
2023/07/14 11:54:35;;;;;;;4.25;2.20;;;;;;;;;;5224587;28;20017;-73
2023/07/14 11:57:06;;;;;;;8.43;2.15;;;;;;;;;;5212330;28;20107;-72
2023/07/14 11:59:54;;;;;;;4.65;2.00;;;;;;;;;;5221459;28;20013;-73
2023/07/14 12:02:25;;;;;;;3.17;1.60;;;;;;;;;;5216578;28;20585;-73
2023/07/14 12:04:58;;;;;;;5.60;2.42;;;;;;;;;;5224748;28;20103;-73
2023/07/14 12:07:28;;;;;;;9.40;2.25;;;;;;;;;;5224327;28;20032;-73
2023/07/14 12:10:01;;;;;;;6.63;2.38;;;;;;;;;;5224749;28;20070;-72
2023/07/14 12:12:33;;;;;;;5.70;2.00;;;;;;;;;;5225073;28;20032;-73
2023/07/14 12:15:23;;;;;;;4.18;2.17;;;;;;;;;;5225078;28;20013;-73
2023/07/14 12:17:53;;;;;;;5.20;1.85;;;;;;;;;;5224245;28;20032;-73
2023/07/14 12:20:26;;;;;;;4.35;1.80;;;;;;;;;;5224538;28;20017;-73
2023/07/14 12:23:05;;;;;;;3.53;1.85;;;;;;;;;;5224662;28;20017;-73
2023/07/14 12:25:38;;;;;;;4.53;2.08;;;;;;;;;;5223934;28;20017;-73
2023/07/14 12:28:14;;;;;;;6.13;2.03;;;;;;;;;;5223817;28;20394;-73
2023/07/14 12:30:49;;;;;;;4.82;1.98;;;;;;;;;;5224135;28;20083;-73
2023/07/14 12:33:21;;;;;;;4.13;2.05;;;;;;;;;;5224170;28;20467;-73
2023/07/14 12:35:51;;;;;;;5.97;2.53;;;;;;;;;;5224407;28;20024;-73
2023/07/14 12:38:22;;;;;;;5.47;2.22;;;;;;;;;;5223692;28;20021;-73
2023/07/14 12:40:54;;;;;;;5.07;2.53;;;;;;;;;;5224021;28;20025;-72
2023/07/14 12:43:26;;;;;;;5.40;2.00;;;;;;;;;;5224123;28;21710;-72
2023/07/14 12:45:57;;;;;;;5.32;1.98;;;;;;;;;;5223962;28;20017;-73
2023/07/14 12:48:30;;;;;;;4.72;2.15;;;;;;;;;;5226670;28;20025;-73
2023/07/14 12:51:19;;;;;;;6.50;2.63;;;;;;;;;;5227924;28;20025;-73
2023/07/14 12:54:08;;;;;;;5.68;2.42;;;;;;;;;;5215461;28;20407;-73
2023/07/14 12:56:38;;;;;;;4.55;2.00;;;;;;;;;;5227524;28;20017;-72
2023/07/14 12:59:12;;;;;;;4.60;2.25;;;;;;;;;;5227803;28;20387;-73
2023/07/14 13:01:43;;;;;;;5.93;2.88;;;;;;;;;;5214055;28;20017;-73
2023/07/14 13:04:14;;;;;;;6.40;2.35;;;;;;;;;;5227882;28;20529;-73
2023/07/14 13:06:46;;;;;;;5.03;2.30;;;;;;;;;;5227487;28;20482;-73
2023/07/14 13:09:20;;;;;;;7.18;2.70;;;;;;;;;;5227567;28;20122;-73
2023/07/14 13:11:51;;;;;;;6.32;2.78;;;;;;;;;;5227310;28;20111;-73
2023/07/14 13:14:27;;;;;;;10.20;2.40;;;;;;;;;;5227415;28;20536;-72
2023/07/14 13:16:58;;;;;;;7.97;2.40;;;;;;;;;;5227170;28;20039;-73
2023/07/14 13:19:40;;;;;;;6.20;3.10;;;;;;;;;;5227241;28;20059;-73
2023/07/14 13:22:31;;;;;;;7.07;2.58;;;;;;;;;;5226028;28;20025;-73
2023/07/14 13:25:04;;;;;;;10.52;2.72;;;;;;;;;;5227313;28;20056;-72
2023/07/14 13:27:36;;;;;;;8.70;2.88;;;;;;;;;;5226810;28;20013;-71
2023/07/14 13:30:23;;;;;;;5.75;2.47;;;;;;;;;;5227095;28;20160;-73
2023/07/14 13:32:53;;;;;;;7.43;2.88;;;;;;;;;;5227116;28;20013;-72
2023/07/14 13:35:42;;;;;;;5.40;2.13;;;;;;;;;;5225863;28;20067;-72
2023/07/14 13:38:13;;;;;;;7.32;2.90;;;;;;;;;;5225692;28;20056;-72
2023/07/14 13:40:43;;;;;;;11.18;3.00;;;;;;;;;;5226957;28;20008;-72
2023/07/14 13:43:14;;;;;;;6.75;2.83;;;;;;;;;;5226816;28;20120;-72
2023/07/14 13:45:55;;;;;;;5.88;2.75;;;;;;;;;;5226491;28;20048;-72
2023/07/14 13:48:42;;;;;;;5.55;2.40;;;;;;;;;;5227064;28;20013;-72
2023/07/14 13:51:16;;;;;;;8.45;2.63;;;;;;;;;;5226558;28;20064;-72
2023/07/14 13:53:47;;;;;;;7.25;2.88;;;;;;;;;;5226827;28;20021;-72
2023/07/14 13:56:20;;;;;;;13.55;3.00;;;;;;;;;;5226350;28;20029;-72
2023/07/14 13:58:51;;;;;;;6.13;2.58;;;;;;;;;;5226546;28;20103;-72
2023/07/14 14:01:22;;;;;;;8.23;2.65;;;;;;;;;;5212956;28;20112;-72
2023/07/14 14:03:54;;;;;;;4.68;2.63;;;;;;;;;;5226369;28;20056;-72
2023/07/14 14:06:25;;;;;;;6.10;2.65;;;;;;;;;;5226038;28;20019;-72
2023/07/14 14:08:55;;;;;;;5.30;2.65;;;;;;;;;;5226309;28;20037;-72
2023/07/14 14:11:25;;;;;;;4.03;2.40;;;;;;;;;;5226278;28;20040;-72
2023/07/14 14:13:56;;;;;;;7.32;2.65;;;;;;;;;;5226286;28;20470;-72
2023/07/14 14:16:26;;;;;;;4.75;2.40;;;;;;;;;;5225576;28;20042;-72
2023/07/14 14:18:56;;;;;;;7.15;2.75;;;;;;;;;;5226144;28;20060;-72
2023/07/14 14:21:27;;;;;;;5.35;2.65;;;;;;;;;;5226340;28;20486;-72
2023/07/14 14:23:57;;;;;;;4.28;2.90;;;;;;;;;;5226195;28;20025;-72
2023/07/14 14:26:28;;;;;;;6.25;2.65;;;;;;;;;;5225730;28;20387;-72
2023/07/14 14:28:58;;;;;;;5.25;2.90;;;;;;;;;;5225706;28;20036;-72
2023/07/14 14:31:28;;;;;;;7.55;2.60;;;;;;;;;;5226042;28;20025;-72
2023/07/14 14:33:59;;;;;;;7.55;2.63;;;;;;;;;;5225940;28;20033;-72
2023/07/14 14:36:29;;;;;;;5.68;2.75;;;;;;;;;;5225958;28;20024;-72
2023/07/14 14:38:59;;;;;;;13.70;2.90;;;;;;;;;;5225844;28;20048;-72
2023/07/14 14:41:30;;;;;;;5.95;3.05;;;;;;;;;;5225598;28;20025;-71
2023/07/14 14:44:02;;;;;;;6.13;2.70;;;;;;;;;;5226009;28;20067;-72
2023/07/14 14:46:32;;;;;;;5.10;2.50;;;;;;;;;;5225303;28;20020;-72
2023/07/14 14:49:07;;;;;;;7.88;2.75;;;;;;;;;;5226009;28;20028;-72
2023/07/14 14:51:38;;;;;;;5.35;2.80;;;;;;;;;;5225382;28;20494;-72
2023/07/14 14:54:08;;;;;;;6.90;2.72;;;;;;;;;;5225422;28;20024;-72
2023/07/14 14:56:41;;;;;;;6.55;2.60;;;;;;;;;;5225124;28;20066;-73
2023/07/14 14:59:27;;;;;;;3.35;2.08;;;;;;;;;;5225624;28;20013;-73
2023/07/14 15:01:57;;;;;;;5.55;2.63;;;;;;;;;;5213469;28;20071;-73
2023/07/14 15:04:27;;;;;;;6.53;3.00;;;;;;;;;;5224974;28;20068;-72
2023/07/14 15:06:58;;;;;;;5.18;2.20;;;;;;;;;;5224792;28;20005;-73
2023/07/14 15:09:29;;;;;;;5.47;2.08;;;;;;;;;;5224797;28;20075;-72
2023/07/14 15:11:59;;;;;;;6.22;2.60;;;;;;;;;;5225146;28;20029;-73
2023/07/14 15:14:32;;;;;;;3.72;2.13;;;;;;;;;;5225005;28;20466;-73
2023/07/14 15:17:15;;;;;;;5.97;1.73;;;;;;;;;;5224659;28;20021;-72